createdAt,value
2022-12-12T00:01:04.836Z,2.23
2022-12-12T00:03:51.864Z,2.20
2022-12-12T00:06:39.443Z,2.17
2022-12-12T00:09:26.385Z,2.40
2022-12-12T00:12:13.220Z,2.13
2022-12-12T00:14:59.969Z,2.50
2022-12-12T00:17:46.777Z,2.47
2022-12-12T00:20:33.526Z,2.20
2022-12-12T00:23:20.372Z,2.00
2022-12-12T00:26:15.121Z,2.07
2022-12-12T00:29:02.140Z,2.20
2022-12-12T00:31:49.254Z,2.40
2022-12-12T00:34:36.043Z,2.27
2022-12-12T00:37:22.794Z,1.93
2022-12-12T00:40:09.561Z,2.60
2022-12-12T00:42:56.419Z,2.20
2022-12-12T00:45:43.229Z,1.83
2022-12-12T00:48:29.990Z,2.13
2022-12-12T00:51:17.475Z,1.90
2022-12-12T00:54:04.560Z,1.90
2022-12-12T00:56:51.456Z,1.60
2022-12-12T00:59:38.580Z,1.87
2022-12-12T01:02:28.268Z,1.80
2022-12-12T01:05:15.519Z,1.60
2022-12-12T01:08:03.033Z,1.77
2022-12-12T01:10:49.863Z,1.63
2022-12-12T01:13:36.758Z,1.73
2022-12-12T01:16:25.422Z,1.90
2022-12-12T01:19:12.879Z,2.00
2022-12-12T01:21:59.640Z,1.60
2022-12-12T01:24:46.435Z,1.27
2022-12-12T01:27:33.180Z,1.77
2022-12-12T01:30:19.957Z,1.60
2022-12-12T01:33:06.865Z,1.30
2022-12-12T01:35:54.449Z,1.60
2022-12-12T01:38:41.328Z,1.70
2022-12-12T01:41:28.118Z,1.80
2022-12-12T01:44:15.177Z,1.37
2022-12-12T01:47:05.037Z,1.67
2022-12-12T01:49:52.498Z,1.27
2022-12-12T01:52:45.734Z,1.77
2022-12-12T01:55:38.026Z,1.30
2022-12-12T01:58:24.986Z,1.50
2022-12-12T02:01:11.969Z,1.33
2022-12-12T02:03:59.751Z,1.50
2022-12-12T02:06:49.176Z,1.53
2022-12-12T02:09:36.644Z,1.40
2022-12-12T02:12:23.881Z,1.40
2022-12-12T02:15:13.107Z,2.00
2022-12-12T02:18:25.752Z,1.90
2022-12-12T02:21:20.556Z,1.93
2022-12-12T02:24:58.545Z,1.83
2022-12-12T02:28:03.687Z,1.70
2022-12-12T02:31:16.650Z,1.93
2022-12-12T02:34:31.722Z,1.90
2022-12-12T02:37:27.974Z,1.83
2022-12-12T02:40:31.885Z,1.80
2022-12-12T02:43:46.053Z,1.60
2022-12-12T02:46:50.001Z,1.73
2022-12-12T02:49:48.142Z,1.60
2022-12-12T02:52:37.609Z,1.60
2022-12-12T02:55:26.192Z,1.63
2022-12-12T02:58:14.329Z,1.60
2022-12-12T03:01:32.103Z,1.70
2022-12-12T03:04:41.704Z,1.60
2022-12-12T03:07:40.376Z,1.83
2022-12-12T03:10:35.911Z,1.47
2022-12-12T03:13:34.077Z,1.77
2022-12-12T03:16:21.090Z,1.70
2022-12-12T03:19:26.566Z,1.43
2022-12-12T03:22:27.519Z,1.90
2022-12-12T03:25:29.553Z,1.67
2022-12-12T03:28:33.579Z,1.27
2022-12-12T03:31:25.674Z,1.60
2022-12-12T03:34:48.252Z,1.60
2022-12-12T03:37:41.142Z,1.50
2022-12-12T03:40:32.217Z,1.80
2022-12-12T03:43:36.003Z,1.60
2022-12-12T03:46:25.821Z,1.70
2022-12-12T03:49:46.902Z,1.50
2022-12-12T03:53:12.073Z,1.20
2022-12-12T03:56:20.032Z,1.10
2022-12-12T03:59:15.386Z,1.27
2022-12-12T04:02:29.895Z,1.20
2022-12-12T04:05:25.328Z,1.50
2022-12-12T04:08:24.219Z,0.93
2022-12-12T04:11:15.346Z,1.20
2022-12-12T04:14:29.825Z,1.40
2022-12-12T04:17:20.145Z,1.23
2022-12-12T04:20:44.647Z,1.57
2022-12-12T04:23:51.718Z,1.20
2022-12-12T04:27:02.265Z,1.00
2022-12-12T04:29:57.960Z,0.90
2022-12-12T04:32:59.499Z,1.10
2022-12-12T04:35:58.470Z,1.27
2022-12-12T04:38:46.120Z,1.30
2022-12-12T04:41:36.293Z,1.17
2022-12-12T04:44:26.244Z,1.03
2022-12-12T04:47:16.590Z,1.27
2022-12-12T04:50:06.778Z,1.47
2022-12-12T04:52:55.005Z,1.30
2022-12-12T04:55:41.715Z,1.63
2022-12-12T04:58:29.105Z,1.67
2022-12-12T05:01:46.878Z,1.57
2022-12-12T05:05:03.601Z,1.30
2022-12-12T05:07:58.833Z,1.23
2022-12-12T05:10:46.068Z,1.80
2022-12-12T05:13:47.740Z,1.83
2022-12-12T05:16:41.546Z,1.40
2022-12-12T05:19:28.349Z,1.70
2022-12-12T05:22:15.086Z,1.63
2022-12-12T05:25:01.910Z,1.53
2022-12-12T05:27:48.859Z,1.87
2022-12-12T05:30:35.903Z,1.47
2022-12-12T05:33:23.079Z,1.40
2022-12-12T05:36:09.894Z,1.50
2022-12-12T05:38:57.142Z,1.80
2022-12-12T05:41:44.017Z,1.37
2022-12-12T05:44:30.791Z,1.67
2022-12-12T05:47:17.571Z,1.50
2022-12-12T05:50:05.432Z,1.33
2022-12-12T05:52:52.922Z,1.90
2022-12-12T05:55:40.150Z,1.30
2022-12-12T05:58:27.192Z,1.70
2022-12-12T06:01:14.074Z,1.60
2022-12-12T06:04:02.105Z,1.40
2022-12-12T06:06:48.918Z,1.50
2022-12-12T06:09:35.694Z,1.80
2022-12-12T06:12:23.020Z,1.17
2022-12-12T06:15:09.959Z,1.30
2022-12-12T06:17:56.854Z,1.03
2022-12-12T06:20:43.657Z,1.50
2022-12-12T06:23:30.406Z,1.57
2022-12-12T06:26:17.200Z,2.43
2022-12-12T06:29:04.039Z,1.43
2022-12-12T06:31:51.117Z,1.17
2022-12-12T06:34:37.917Z,1.27
2022-12-12T06:37:27.169Z,1.87
2022-12-12T06:40:13.934Z,1.30
2022-12-12T06:43:00.699Z,1.33
2022-12-12T06:45:47.433Z,1.83
2022-12-12T06:48:34.279Z,1.33
2022-12-12T06:51:26.388Z,1.10
2022-12-12T06:54:13.585Z,1.23
2022-12-12T06:57:00.777Z,1.40
2022-12-12T06:59:47.534Z,1.20
2022-12-12T07:02:34.291Z,1.20
2022-12-12T07:05:21.045Z,1.50
2022-12-12T07:08:07.860Z,1.37
2022-12-12T07:10:56.010Z,1.20
2022-12-12T07:13:43.030Z,1.13
2022-12-12T07:16:30.266Z,1.20
2022-12-12T07:19:17.017Z,0.90
2022-12-12T07:22:09.360Z,1.37
2022-12-12T07:24:57.749Z,1.20
2022-12-12T07:27:44.526Z,1.30
2022-12-12T07:30:31.830Z,1.40
2022-12-12T07:33:18.720Z,1.00
2022-12-12T07:36:05.495Z,1.33
2022-12-12T07:38:52.547Z,1.03
2022-12-12T07:41:40.887Z,1.20
2022-12-12T07:44:27.897Z,1.23
2022-12-12T07:47:17.753Z,1.30
2022-12-12T07:50:04.570Z,1.20
2022-12-12T07:52:51.330Z,1.20
2022-12-12T07:55:21.136Z,1.23
2022-12-12T07:58:07.879Z,1.23
2022-12-12T08:00:54.649Z,1.07
2022-12-12T08:03:41.453Z,1.10
2022-12-12T08:06:28.400Z,1.20
2022-12-12T08:09:15.228Z,1.33
2022-12-12T08:12:01.967Z,1.40
2022-12-12T08:14:48.874Z,1.57
2022-12-12T08:17:35.714Z,1.40
2022-12-12T08:20:22.609Z,1.03
2022-12-12T08:23:09.436Z,1.17
2022-12-12T08:25:56.350Z,1.10
2022-12-12T08:28:43.155Z,1.23
2022-12-12T08:31:29.999Z,1.30
2022-12-12T08:34:17.198Z,0.80
2022-12-12T08:37:04.835Z,1.30
2022-12-12T08:39:55.552Z,1.70
2022-12-12T08:42:42.689Z,1.23
2022-12-12T08:45:29.773Z,1.00
2022-12-12T08:48:16.555Z,1.30
2022-12-12T08:51:03.424Z,1.27
2022-12-12T08:53:50.177Z,1.30
2022-12-12T08:56:38.178Z,1.33
2022-12-12T08:59:24.958Z,0.80
2022-12-12T09:02:11.924Z,1.20
2022-12-12T09:04:58.942Z,1.17
2022-12-12T09:07:46.484Z,1.40
2022-12-12T09:10:33.426Z,1.37
2022-12-12T09:13:20.209Z,1.20
2022-12-12T09:16:10.453Z,1.07
2022-12-12T09:18:58.021Z,1.30
2022-12-12T09:21:44.849Z,0.90
2022-12-12T09:24:31.626Z,0.93
2022-12-12T09:27:18.565Z,1.30
2022-12-12T09:30:05.354Z,1.50
2022-12-12T09:32:52.129Z,0.90
2022-12-12T09:35:38.994Z,1.17
2022-12-12T09:38:26.525Z,0.70
2022-12-12T09:41:17.265Z,1.00
2022-12-12T09:44:21.133Z,1.07
2022-12-12T09:47:11.401Z,0.80
2022-12-12T09:50:15.857Z,1.67
2022-12-12T09:53:04.450Z,1.20
2022-12-12T09:55:54.156Z,0.97
2022-12-12T09:58:55.387Z,0.97
2022-12-12T10:01:51.938Z,1.47
2022-12-12T10:04:59.542Z,1.00
2022-12-12T10:08:06.539Z,0.83
2022-12-12T10:10:56.838Z,0.97
2022-12-12T10:13:49.603Z,1.10
2022-12-12T10:16:36.906Z,0.67
2022-12-12T10:19:49.016Z,1.17
2022-12-12T10:22:54.870Z,1.30
2022-12-12T10:26:06.405Z,0.83
2022-12-12T10:28:53.343Z,0.87
2022-12-12T10:31:49.288Z,1.10
2022-12-12T10:34:57.976Z,1.07
2022-12-12T10:38:03.945Z,0.53
2022-12-12T10:41:18.465Z,1.07
2022-12-12T10:44:22.399Z,1.50
2022-12-12T10:47:28.474Z,1.13
2022-12-12T10:50:26.401Z,1.37
2022-12-12T10:53:14.810Z,1.33
2022-12-12T10:56:12.596Z,0.87
2022-12-12T10:59:02.293Z,1.00
2022-12-12T11:02:11.235Z,1.20
2022-12-12T11:04:58.245Z,0.80
2022-12-12T11:07:45.481Z,1.13
2022-12-12T11:10:47.196Z,1.00
2022-12-12T11:13:36.737Z,1.30
2022-12-12T11:16:36.404Z,1.37
2022-12-12T11:19:45.710Z,1.20
2022-12-12T11:22:35.964Z,0.73
